Ana Sayfa
METAR-TAF:

METAR-TAF

Havaalanları :

Gazipaşa Havalimanı

Gazipaşa, Türkiye

Enlem: 36-17-56N, Boylam: 32-18-00E, yükseklik: 15 m

Güncel hava durumu gözlemi

Rapor saat 03:50 UTC de 1 saat ve 7 dakika önce yapıldı.
Rüzgar doğu/kuzeydoğudan 4 kt, kuzey/kuzeydoğu ve doğu arasında değişken
Sıcaklık 19°C
Nem 68%
Basınç 1005 hPa
Görüş mesafesi 10 km veya daha fazla
1500 m altında bulut yok ve kümülonimbus yok

METAR: LTFG 150350Z 06004KT 030V100 CAVOK 19/13 Q1005

Saat: 07:57 (04:57 UTC)

Tahmin

Rapor saat 01:40 UTC de 3 saat ve 17 dakika önce yapıldı.
Ayın 15'si saat 03 UTC'den ayın 15'si saat 12 UTC'ye kadar geçerli Tahmin
Rüzgar değişken yönden 2 kt
Görüş mesafesi 10 km veya daha fazla
1500 m altında bulut yok ve kümülonimbus yok

TAF: LTFG 150140Z 1503/1512 VRB02KT CAVOK

4.000'den fazla havaalanı için hava durumu gözlemleri ve tahminleri (METAR ve TAF raporları).

Kullanılabilir istasyonlar harita üzerinde sarı ve kırmızı noktalarla gösterilir.

İstasyonun adını görmek için fareyi noktanın üzerinde gezdirin.

Sonrasında hava gözlem ve tahminlerini görmek için tıklayın.

Haritayı değiştirmek için: yaklaştırmak için siyah artı işaretli yeşil düğmeye ve uzaklaştırmak için de eksi işaretli düğmeye hızla tıklayın; bitişik haritalar için yeşil okları kullanın.


METAR-TAF: